createdAt,value
2019-04-26T00:02:30.367Z,10.01
2019-04-26T00:05:00.140Z,10.10
2019-04-26T00:07:29.572Z,10.08
2019-04-26T00:10:01.018Z,9.97
2019-04-26T00:12:55.974Z,10.05
2019-04-26T00:15:53.213Z,9.97
2019-04-26T00:18:22.246Z,10.21
2019-04-26T00:20:51.586Z,10.18
2019-04-26T00:23:20.601Z,10.19
2019-04-26T00:25:49.623Z,10.39
2019-04-26T00:28:19.019Z,10.15
2019-04-26T00:30:50.575Z,10.06
2019-04-26T00:33:19.979Z,9.99
2019-04-26T00:35:49.238Z,9.93
2019-04-26T00:38:18.286Z,9.72
2019-04-26T00:40:47.730Z,9.66
2019-04-26T00:43:17.123Z,9.56
2019-04-26T00:45:46.131Z,9.51
2019-04-26T00:48:16.895Z,9.48
2019-04-26T00:50:46.826Z,9.42
2019-04-26T00:53:17.608Z,9.45
2019-04-26T00:55:46.888Z,9.45
2019-04-26T00:58:16.818Z,9.39
2019-04-26T01:00:46.541Z,9.38
2019-04-26T01:03:16.632Z,9.38
2019-04-26T01:05:59.226Z,9.56
2019-04-26T01:08:19.160Z,9.52
2019-04-26T01:10:48.689Z,9.47
2019-04-26T01:13:17.900Z,9.51
2019-04-26T01:15:46.985Z,9.49
2019-04-26T01:18:16.858Z,9.44
2019-04-26T01:20:46.801Z,9.42
2019-04-26T01:23:18.738Z,9.41
2019-04-26T01:26:05.571Z,9.37
2019-04-26T01:28:43.075Z,9.38
2019-04-26T01:31:13.256Z,9.34
2019-04-26T01:33:43.929Z,9.35
2019-04-26T01:36:13.859Z,9.30
2019-04-26T01:38:44.036Z,9.22
2019-04-26T01:41:19.800Z,9.29
2019-04-26T01:43:59.913Z,9.38
2019-04-26T01:46:35.185Z,9.35
2019-04-26T01:49:08.273Z,9.62
2019-04-26T01:51:42.538Z,9.56
2019-04-26T01:54:14.879Z,9.54
2019-04-26T01:56:43.946Z,9.47
2019-04-26T01:59:15.090Z,9.40
2019-04-26T02:02:13.115Z,9.38
2019-04-26T02:04:44.654Z,9.40
2019-04-26T02:07:15.390Z,9.37
2019-04-26T02:09:44.955Z,9.40
2019-04-26T02:12:14.123Z,9.33
2019-04-26T02:14:43.383Z,9.40
2019-04-26T02:17:13.039Z,9.40
2019-04-26T02:19:42.099Z,9.38
2019-04-26T02:22:27.872Z,9.35
2019-04-26T02:24:56.927Z,9.32
2019-04-26T02:27:28.458Z,9.31
2019-04-26T02:29:58.603Z,9.30
2019-04-26T02:32:29.601Z,9.20
2019-04-26T02:34:59.299Z,9.09
2019-04-26T02:37:30.146Z,9.09
2019-04-26T02:39:59.587Z,9.11
2019-04-26T02:42:38.092Z,9.09
2019-04-26T02:46:00.851Z,9.19
2019-04-26T02:48:54.601Z,9.16
2019-04-26T02:51:30.445Z,9.17
2019-04-26T02:54:25.579Z,9.24
2019-04-26T02:56:56.469Z,9.33
2019-04-26T02:59:38.334Z,9.61
2019-04-26T03:02:30.215Z,9.47
2019-04-26T03:05:06.418Z,9.34
2019-04-26T03:08:13.881Z,9.17
2019-04-26T03:11:07.393Z,8.98
2019-04-26T03:13:57.148Z,8.96
2019-04-26T03:16:48.287Z,9.03
2019-04-26T03:19:46.192Z,9.00
2019-04-26T03:22:55.309Z,9.20
2019-04-26T03:25:35.159Z,9.21
2019-04-26T03:28:15.528Z,9.00
2019-04-26T03:31:33.907Z,8.89
2019-04-26T03:34:39.233Z,8.78
2019-04-26T03:37:54.950Z,8.76
2019-04-26T03:40:59.800Z,8.85
2019-04-26T03:43:52.658Z,8.79
2019-04-26T03:46:41.339Z,8.76
2019-04-26T03:49:47.127Z,8.77
2019-04-26T03:53:05.180Z,8.67
2019-04-26T03:56:08.694Z,8.86
2019-04-26T03:59:06.785Z,9.09
2019-04-26T04:01:43.214Z,9.13
2019-04-26T04:04:30.782Z,9.25
2019-04-26T04:07:04.650Z,9.32
2019-04-26T04:09:33.074Z,9.24
2019-04-26T04:12:11.397Z,9.28
2019-04-26T04:14:48.177Z,9.33
2019-04-26T04:17:32.519Z,9.32
2019-04-26T04:20:38.957Z,9.22
2019-04-26T04:23:55.805Z,9.01
2019-04-26T04:26:41.657Z,8.94
2019-04-26T04:29:42.654Z,8.93
2019-04-26T04:32:18.911Z,8.96
2019-04-26T04:34:52.788Z,8.81
2019-04-26T04:37:23.012Z,8.67
2019-04-26T04:40:21.966Z,8.94
2019-04-26T04:43:28.552Z,8.87
2019-04-26T04:46:54.743Z,8.87
2019-04-26T04:49:50.912Z,8.78
2019-04-26T04:53:02.667Z,8.87
2019-04-26T04:55:52.083Z,8.86
2019-04-26T04:58:25.378Z,8.81
2019-04-26T05:01:32.361Z,8.72
2019-04-26T05:04:21.385Z,8.74
2019-04-26T05:07:23.005Z,8.51
2019-04-26T05:10:14.121Z,8.68
2019-04-26T05:13:07.157Z,8.85
2019-04-26T05:15:57.725Z,8.68
2019-04-26T05:19:27.516Z,8.59
2019-04-26T05:22:32.239Z,8.64
2019-04-26T05:25:40.556Z,8.89
2019-04-26T05:28:20.668Z,8.82
2019-04-26T05:31:31.918Z,8.89
2019-04-26T05:34:13.745Z,8.93
2019-04-26T05:37:27.939Z,8.78
2019-04-26T05:40:26.095Z,8.69
2019-04-26T05:43:42.422Z,8.53
2019-04-26T05:47:03.101Z,8.71
2019-04-26T05:50:24.255Z,8.71
2019-04-26T05:53:14.191Z,8.63
2019-04-26T05:56:37.988Z,8.36
2019-04-26T05:59:22.447Z,8.57
2019-04-26T06:02:49.987Z,8.76
2019-04-26T06:06:16.065Z,9.00
2019-04-26T06:09:42.251Z,8.98
2019-04-26T06:12:56.614Z,8.92
2019-04-26T06:15:55.930Z,8.97
2019-04-26T06:18:55.161Z,9.10
2019-04-26T06:21:30.102Z,9.01
2019-04-26T06:24:40.985Z,9.10
2019-04-26T06:27:54.555Z,9.29
2019-04-26T06:30:30.119Z,9.37
2019-04-26T06:33:19.365Z,9.53
2019-04-26T06:35:49.403Z,9.68
2019-04-26T06:39:24.457Z,9.59
2019-04-26T06:42:36.607Z,9.67
2019-04-26T06:45:30.399Z,9.57
2019-04-26T06:48:07.325Z,9.91
2019-04-26T06:50:43.005Z,10.28
2019-04-26T06:53:44.674Z,10.33
2019-04-26T06:56:34.037Z,10.37
2019-04-26T06:59:35.734Z,10.43
2019-04-26T07:02:03.530Z,10.35
2019-04-26T07:05:01.128Z,10.57
2019-04-26T07:07:54.611Z,10.22
2019-04-26T07:10:44.675Z,10.59
2019-04-26T07:13:38.736Z,10.59
2019-04-26T07:16:23.209Z,10.73
2019-04-26T07:19:19.957Z,10.66
2019-04-26T07:22:20.436Z,10.87
2019-04-26T07:25:20.824Z,10.97
2019-04-26T07:28:15.590Z,11.13
2019-04-26T07:31:09.679Z,11.15
2019-04-26T07:34:22.148Z,11.58
2019-04-26T07:37:34.905Z,11.96
2019-04-26T07:40:47.598Z,11.78
2019-04-26T07:43:27.751Z,11.62
2019-04-26T07:46:26.461Z,11.88
2019-04-26T07:49:34.841Z,11.75
2019-04-26T07:52:34.524Z,11.65
2019-04-26T07:55:43.338Z,11.66
2019-04-26T07:58:47.871Z,11.92
2019-04-26T08:01:32.471Z,11.92
2019-04-26T08:04:07.338Z,11.94
2019-04-26T08:06:52.473Z,12.15
2019-04-26T08:09:27.471Z,12.18
2019-04-26T08:11:59.511Z,12.48
2019-04-26T08:14:42.329Z,12.81
2019-04-26T08:17:31.645Z,13.18
2019-04-26T08:20:14.057Z,13.18
2019-04-26T08:22:46.804Z,13.07
2019-04-26T08:25:17.682Z,13.23
2019-04-26T08:27:47.923Z,13.23
2019-04-26T08:30:19.287Z,13.51
2019-04-26T08:32:53.790Z,13.80
2019-04-26T08:35:28.442Z,14.22
2019-04-26T08:38:08.258Z,14.10
2019-04-26T08:40:34.374Z,14.35
2019-04-26T08:43:22.828Z,14.65
2019-04-26T08:46:04.886Z,14.71
2019-04-26T08:49:09.637Z,14.86
2019-04-26T08:51:39.357Z,15.01
2019-04-26T08:54:14.100Z,15.79
2019-04-26T08:56:46.652Z,16.96
2019-04-26T08:59:21.726Z,17.65
2019-04-26T09:01:56.642Z,18.31
2019-04-26T09:04:31.468Z,19.18
2019-04-26T09:07:05.559Z,18.98
2019-04-26T09:09:36.146Z,20.17
2019-04-26T09:12:09.890Z,21.03
2019-04-26T09:14:39.457Z,21.37
2019-04-26T09:17:08.485Z,19.95
2019-04-26T09:19:37.530Z,19.05
2019-04-26T09:22:22.660Z,18.05
2019-04-26T09:24:59.437Z,17.69
2019-04-26T09:27:52.138Z,16.96
2019-04-26T09:30:52.305Z,18.01
2019-04-26T09:33:43.321Z,18.43
2019-04-26T09:36:12.325Z,19.24
2019-04-26T09:38:41.662Z,20.04
2019-04-26T09:41:11.238Z,20.38
2019-04-26T09:43:45.619Z,19.98
2019-04-26T09:46:33.185Z,20.09
2019-04-26T09:49:26.264Z,19.31
2019-04-26T09:51:55.798Z,19.74
2019-04-26T09:54:24.817Z,18.66
2019-04-26T09:56:53.835Z,18.46
2019-04-26T09:59:23.397Z,18.00
2019-04-26T10:01:55.391Z,17.77
2019-04-26T10:04:23.659Z,17.96
2019-04-26T10:06:52.685Z,17.69
2019-04-26T10:09:22.786Z,17.58
2019-04-26T10:11:55.569Z,17.11
2019-04-26T10:14:34.821Z,17.32
2019-04-26T10:17:15.591Z,18.11
2019-04-26T10:19:48.157Z,18.54
2019-04-26T10:22:17.477Z,19.19
2019-04-26T10:24:47.066Z,18.92
2019-04-26T10:27:16.090Z,19.97
2019-04-26T10:29:45.178Z,21.29
2019-04-26T10:32:14.253Z,22.03
2019-04-26T10:34:47.491Z,21.07
2019-04-26T10:37:14.777Z,21.67
2019-04-26T10:39:43.829Z,22.52
2019-04-26T10:42:15.276Z,22.18
2019-04-26T10:44:44.613Z,21.27
2019-04-26T10:47:15.739Z,22.50
2019-04-26T10:49:46.219Z,23.24
2019-04-26T10:52:34.429Z,23.23
2019-04-26T10:55:40.698Z,23.20
2019-04-26T10:58:27.646Z,22.63
2019-04-26T11:00:58.223Z,21.97
2019-04-26T11:03:27.558Z,20.66
2019-04-26T11:05:56.568Z,20.18
2019-04-26T11:08:25.609Z,20.78
2019-04-26T11:10:54.622Z,20.50
2019-04-26T11:13:23.693Z,19.37
2019-04-26T11:15:52.693Z,19.41
2019-04-26T11:18:27.340Z,20.33
2019-04-26T11:20:52.526Z,20.22
2019-04-26T11:23:21.581Z,21.52
2019-04-26T11:25:50.898Z,20.71
2019-04-26T11:28:21.429Z,19.95
2019-04-26T11:30:52.031Z,20.63
2019-04-26T11:33:21.468Z,21.45
2019-04-26T11:35:50.522Z,21.64
2019-04-26T11:38:21.720Z,22.26
2019-04-26T11:41:05.022Z,22.27
2019-04-26T11:43:21.191Z,21.31
2019-04-26T11:45:50.581Z,20.30
2019-04-26T11:48:20.063Z,19.51
2019-04-26T11:50:51.991Z,19.27
2019-04-26T11:53:20.480Z,19.49
2019-04-26T11:55:50.184Z,18.96
2019-04-26T11:58:22.395Z,18.71
2019-04-26T12:00:55.349Z,18.63
2019-04-26T12:03:24.902Z,18.31
2019-04-26T12:06:13.195Z,17.98
2019-04-26T12:09:07.789Z,17.93
2019-04-26T12:11:48.739Z,18.15
2019-04-26T12:14:19.668Z,18.24
2019-04-26T12:16:48.103Z,18.61
2019-04-26T12:19:09.787Z,18.95
2019-04-26T12:21:38.806Z,18.54
2019-04-26T12:24:08.243Z,19.47
2019-04-26T12:26:43.695Z,20.25
2019-04-26T12:29:10.616Z,19.85
2019-04-26T12:31:39.482Z,19.98
2019-04-26T12:34:08.915Z,19.79
2019-04-26T12:36:37.957Z,19.09
2019-04-26T12:39:08.927Z,18.98
2019-04-26T12:41:40.700Z,18.83
2019-04-26T12:44:09.007Z,18.83
2019-04-26T12:46:50.772Z,18.67
2019-04-26T12:49:20.233Z,18.68
2019-04-26T12:51:52.208Z,18.09
2019-04-26T12:54:21.662Z,18.22
2019-04-26T12:56:50.697Z,19.16
2019-04-26T12:59:22.466Z,19.31
2019-04-26T13:01:50.933Z,19.55
2019-04-26T13:04:19.970Z,20.56
2019-04-26T13:06:54.472Z,20.64
2019-04-26T13:09:26.506Z,20.72
2019-04-26T13:12:11.295Z,20.94
2019-04-26T13:14:52.685Z,20.55
2019-04-26T13:17:24.865Z,19.64
2019-04-26T13:19:55.454Z,19.44
2019-04-26T13:22:24.873Z,19.07
2019-04-26T13:24:53.938Z,19.40
2019-04-26T13:27:23.054Z,19.24
2019-04-26T13:30:01.935Z,19.31
2019-04-26T13:32:23.645Z,18.43
2019-04-26T13:34:53.132Z,18.43
2019-04-26T13:37:22.222Z,18.04
2019-04-26T13:39:55.155Z,18.25
2019-04-26T13:42:22.679Z,17.59
2019-04-26T13:45:19.802Z,18.82
2019-04-26T13:48:10.564Z,19.58
2019-04-26T13:50:43.766Z,19.68
2019-04-26T13:53:12.778Z,19.96
2019-04-26T13:55:41.803Z,19.46
2019-04-26T13:58:10.871Z,19.62
2019-04-26T14:00:43.451Z,20.10
2019-04-26T14:03:10.664Z,19.10
2019-04-26T14:05:39.713Z,19.86
2019-04-26T14:08:08.742Z,20.76
2019-04-26T14:10:38.053Z,20.46
2019-04-26T14:13:07.327Z,20.91
2019-04-26T14:15:39.391Z,19.28
2019-04-26T14:18:09.237Z,19.11
2019-04-26T14:20:38.947Z,18.81
2019-04-26T14:23:16.429Z,18.68
2019-04-26T14:26:04.852Z,18.67
2019-04-26T14:28:32.304Z,17.85
2019-04-26T14:31:02.413Z,17.63
2019-04-26T14:33:35.561Z,17.40
2019-04-26T14:36:17.115Z,17.67
2019-04-26T14:38:40.040Z,17.86
2019-04-26T14:41:07.476Z,17.97
2019-04-26T14:43:41.094Z,18.27
2019-04-26T14:46:10.412Z,18.64
2019-04-26T14:48:40.475Z,18.61
2019-04-26T14:51:12.390Z,19.05
2019-04-26T14:53:41.206Z,18.90
2019-04-26T14:56:10.292Z,18.68
2019-04-26T14:58:39.663Z,18.60
2019-04-26T15:01:12.428Z,18.77
2019-04-26T15:03:57.160Z,18.69
2019-04-26T15:06:27.582Z,18.75
2019-04-26T15:08:56.628Z,18.67
2019-04-26T15:11:27.339Z,19.50
2019-04-26T15:13:56.345Z,18.54
2019-04-26T15:16:25.636Z,18.63
2019-04-26T15:18:54.692Z,18.30
2019-04-26T15:21:27.364Z,18.17
2019-04-26T15:23:55.304Z,18.44
2019-04-26T15:26:29.787Z,19.05
2019-04-26T15:28:57.099Z,19.78
2019-04-26T15:31:28.011Z,19.90
2019-04-26T15:33:57.008Z,19.70
2019-04-26T15:36:26.037Z,19.34
2019-04-26T15:38:55.715Z,19.59
2019-04-26T15:41:51.381Z,19.95
2019-04-26T15:44:37.914Z,20.63
2019-04-26T15:47:25.682Z,20.29
2019-04-26T15:49:58.570Z,20.43
2019-04-26T15:52:30.192Z,19.46
2019-04-26T15:55:03.368Z,19.15
2019-04-26T15:57:32.312Z,19.38
2019-04-26T16:00:00.452Z,19.61
2019-04-26T16:02:29.511Z,19.43
2019-04-26T16:04:58.527Z,19.05
2019-04-26T16:07:29.169Z,18.62
2019-04-26T16:09:58.418Z,18.33
2019-04-26T16:12:27.460Z,18.27
2019-04-26T16:14:56.477Z,18.56
2019-04-26T16:17:25.938Z,18.27
2019-04-26T16:19:56.145Z,18.28
2019-04-26T16:22:30.090Z,18.44
2019-04-26T16:24:58.235Z,18.15
2019-04-26T16:27:30.950Z,18.22
2019-04-26T16:30:16.305Z,18.22
2019-04-26T16:33:03.324Z,18.25
2019-04-26T16:35:32.896Z,18.25
2019-04-26T16:38:22.474Z,18.15
2019-04-26T16:40:55.207Z,18.14
2019-04-26T16:43:37.043Z,18.12
2019-04-26T16:45:55.156Z,17.96
2019-04-26T16:48:25.746Z,17.86
2019-04-26T16:50:55.042Z,18.05
2019-04-26T16:53:43.751Z,18.16
2019-04-26T16:55:54.966Z,18.15
2019-04-26T16:58:24.849Z,17.64
2019-04-26T17:00:57.775Z,17.51
2019-04-26T17:03:26.208Z,17.42
2019-04-26T17:06:04.639Z,17.28
2019-04-26T17:08:26.114Z,17.23
2019-04-26T17:10:56.657Z,17.15
2019-04-26T17:13:29.989Z,17.12
2019-04-26T17:15:58.155Z,16.74
2019-04-26T17:18:27.927Z,16.69
2019-04-26T17:20:56.946Z,16.67
2019-04-26T17:23:48.004Z,16.41
2019-04-26T17:26:37.558Z,16.28
2019-04-26T17:29:06.610Z,16.00
2019-04-26T17:31:35.649Z,16.21
2019-04-26T17:34:05.241Z,16.21
2019-04-26T17:36:34.911Z,15.95
2019-04-26T17:39:06.207Z,15.76
2019-04-26T17:41:35.298Z,15.30
2019-04-26T17:44:10.647Z,14.74
2019-04-26T17:46:35.107Z,14.45
2019-04-26T17:49:04.482Z,14.10
2019-04-26T17:51:41.758Z,13.59
2019-04-26T17:54:40.883Z,13.50
2019-04-26T17:56:43.773Z,13.29
2019-04-26T17:59:24.189Z,13.12
2019-04-26T18:01:48.046Z,12.70
2019-04-26T18:04:15.426Z,12.70
2019-04-26T18:06:54.263Z,12.90
2019-04-26T18:09:38.022Z,12.96
2019-04-26T18:11:46.464Z,13.35
2019-04-26T18:14:21.657Z,13.35
2019-04-26T18:16:53.217Z,13.45
2019-04-26T18:19:41.278Z,13.44
2019-04-26T18:22:33.042Z,13.28
2019-04-26T18:25:05.188Z,13.50
2019-04-26T18:27:35.685Z,13.47
2019-04-26T18:30:10.279Z,13.38
2019-04-26T18:32:42.174Z,13.41
2019-04-26T18:35:09.170Z,13.22
2019-04-26T18:37:39.553Z,13.44
2019-04-26T18:40:09.493Z,13.16
2019-04-26T18:42:41.987Z,12.94
2019-04-26T18:45:09.412Z,12.80
2019-04-26T18:47:40.758Z,12.70
2019-04-26T18:50:10.008Z,12.56
2019-04-26T18:52:47.047Z,12.44
2019-04-26T18:55:29.049Z,12.39
2019-04-26T18:57:59.465Z,12.30
2019-04-26T19:00:33.782Z,12.32
2019-04-26T19:03:02.787Z,12.59
2019-04-26T19:05:33.825Z,12.50
2019-04-26T19:08:04.964Z,12.54
2019-04-26T19:10:34.359Z,12.36
2019-04-26T19:13:22.240Z,12.28
2019-04-26T19:16:17.110Z,12.14
2019-04-26T19:19:00.033Z,12.36
2019-04-26T19:21:45.960Z,12.23
2019-04-26T19:24:19.584Z,12.07
2019-04-26T19:26:50.031Z,12.11
2019-04-26T19:29:18.723Z,12.09
2019-04-26T19:31:48.707Z,11.89
2019-04-26T19:34:17.954Z,11.94
2019-04-26T19:36:47.089Z,11.97
2019-04-26T19:39:16.164Z,11.96
2019-04-26T19:41:45.966Z,11.97
2019-04-26T19:44:18.808Z,12.06
2019-04-26T19:47:22.652Z,11.93
2019-04-26T19:50:09.819Z,11.95
2019-04-26T19:53:01.726Z,12.00
2019-04-26T19:55:41.809Z,11.97
2019-04-26T19:58:16.662Z,11.89
2019-04-26T20:00:46.531Z,12.00
2019-04-26T20:03:16.708Z,11.92
2019-04-26T20:05:44.887Z,11.99
2019-04-26T20:08:14.208Z,12.03
2019-04-26T20:10:43.750Z,11.75
2019-04-26T20:13:16.177Z,11.55
2019-04-26T20:15:44.756Z,11.42
2019-04-26T20:18:17.337Z,11.33
2019-04-26T20:20:46.730Z,11.43
2019-04-26T20:23:15.732Z,11.29
2019-04-26T20:25:44.752Z,11.32
2019-04-26T20:28:14.078Z,11.46
2019-04-26T20:31:08.968Z,11.46
2019-04-26T20:33:38.621Z,11.59
2019-04-26T20:36:07.629Z,11.70
2019-04-26T20:38:43.693Z,11.78
2019-04-26T20:41:08.129Z,11.39
2019-04-26T20:43:44.398Z,11.39
2019-04-26T20:46:14.888Z,11.26
2019-04-26T20:48:39.347Z,11.55
2019-04-26T20:51:10.992Z,11.55
2019-04-26T20:53:41.751Z,11.23
2019-04-26T20:56:16.198Z,11.30
2019-04-26T20:58:43.129Z,11.06
2019-04-26T21:01:14.051Z,11.06
2019-04-26T21:03:45.977Z,11.11
2019-04-26T21:06:14.708Z,11.01
2019-04-26T21:08:43.749Z,11.05
2019-04-26T21:11:13.679Z,11.05
2019-04-26T21:13:42.947Z,11.30
2019-04-26T21:16:15.199Z,11.40
2019-04-26T21:18:44.460Z,11.21
2019-04-26T21:21:15.965Z,11.05
2019-04-26T21:23:45.706Z,11.05
2019-04-26T21:26:21.677Z,11.05
2019-04-26T21:29:14.943Z,11.13
2019-04-26T21:31:45.480Z,11.17
2019-04-26T21:34:18.936Z,11.24
2019-04-26T21:37:20.472Z,11.24
2019-04-26T21:40:26.141Z,11.11
2019-04-26T21:42:59.277Z,11.11
2019-04-26T21:45:28.173Z,11.03
2019-04-26T21:47:56.634Z,11.09
2019-04-26T21:50:29.208Z,11.31
2019-04-26T21:52:58.636Z,11.29
2019-04-26T21:55:35.376Z,11.18
2019-04-26T21:57:57.950Z,11.03
2019-04-26T22:00:46.331Z,11.03
2019-04-26T22:03:16.169Z,11.16
2019-04-26T22:05:49.823Z,11.20
2019-04-26T22:08:24.415Z,11.18
2019-04-26T22:10:49.731Z,11.02
2019-04-26T22:13:26.602Z,11.05
2019-04-26T22:16:29.388Z,10.66
2019-04-26T22:18:50.588Z,10.66
2019-04-26T22:21:39.499Z,10.57
2019-04-26T22:24:31.240Z,10.56
2019-04-26T22:27:00.240Z,10.55
2019-04-26T22:29:29.609Z,10.39
2019-04-26T22:31:58.607Z,10.39
2019-04-26T22:34:27.615Z,10.35
2019-04-26T22:36:56.646Z,10.31
2019-04-26T22:39:26.054Z,10.24
2019-04-26T22:41:58.388Z,10.23
2019-04-26T22:44:32.896Z,10.22
2019-04-26T22:47:41.041Z,10.22
2019-04-26T22:50:08.347Z,10.25
2019-04-26T22:52:37.774Z,10.24
2019-04-26T22:55:07.574Z,10.19
2019-04-26T22:57:38.432Z,10.23
2019-04-26T23:00:08.714Z,10.39
2019-04-26T23:02:37.866Z,10.78
2019-04-26T23:05:07.197Z,10.79
2019-04-26T23:07:36.339Z,10.90
2019-04-26T23:10:08.356Z,10.93
2019-04-26T23:13:04.477Z,10.86
2019-04-26T23:15:47.568Z,10.80
2019-04-26T23:18:34.414Z,10.61
2019-04-26T23:21:07.670Z,10.81
2019-04-26T23:23:40.919Z,10.95
2019-04-26T23:26:08.280Z,10.77
2019-04-26T23:28:37.344Z,10.82
2019-04-26T23:31:08.159Z,10.97
2019-04-26T23:33:37.154Z,10.99
2019-04-26T23:36:06.247Z,10.92
2019-04-26T23:38:37.353Z,10.99
2019-04-26T23:41:07.322Z,11.08
2019-04-26T23:43:36.563Z,10.98
2019-04-26T23:46:05.625Z,10.93
2019-04-26T23:48:34.984Z,11.07
2019-04-26T23:51:08.113Z,11.14
2019-04-26T23:53:35.950Z,11.28
2019-04-26T23:56:05.157Z,11.20
2019-04-26T23:58:34.178Z,11.30
